Meteo Giornale » Osservazioni meteo Stati Uniti (USA) » North Platte
ore: 02:53 - Osservazioni Meteo North Platte
Lat. 41° 7' N Lon. 100° 40' W Alt. 846 metri s.l.m.
21 °C
Poco Nuvoloso
Temp. 24 Ore
14 °C
33 °C
Nord
5.5 Km/h
Dew point 20 °C
Umidità 94 %
Visibilità 10 Km
Il sole sorge alle ore 07:09
Il sole tramonta alle ore 20:15
| Data e Ora | Cielo e Fenomeni | T °C | DP °C | Um. % | Pres. hPa | Vis. km | Vento km/h | |
|---|---|---|---|---|---|---|---|---|
| Oggi h: 02:53 | Poco Nuvoloso | 21 | 20 | 94 | 1016 | 10 | N 5.5 | |
| Oggi h: 01:53 | Poco Nuvoloso | 21 | 20 | 94 | 1016 | 10 | N 5.5 | |
| Oggi h: 00:53 | Sereno | 22 | 20 | 88 | 1016 | 10 | N 5.5 | |
| Ieri h: 23:53 | Sereno | 22 | 20 | 88 | 1016 | 10 | N 5.5 | |
| Ieri h: 22:53 | Sereno | 22 | 21 | 94 | 1016 | 10 | E 7.4 | |
| Ieri h: 21:53 | Sereno | 23 | 21 | 88 | 1016 | 10 | E/SE 7.4 | |
| Ieri h: 20:53 | Sereno | 23 | 21 | 88 | 1015 | 10 | E 9.3 | |
| Ieri h: 19:53 | Sereno | 26 | 20 | 69 | 1015 | 10 | E/SE 9.3 | |
| Ieri h: 18:53 | Sereno | 29 | 19 | 54 | 1015 | 10 | N 0 | |
| Ieri h: 17:53 | Sereno | 32 | 18 | 43 | 1015 | 10 | N 0 | |
| Ieri h: 16:53 | Sereno | 33 | 17 | 38 | 1015 | 10 | N 5.5 | |
| Ieri h: 15:53 | Sereno | 32 | 17 | 40 | 1015 | 10 | N 0 | |
| Ieri h: 14:53 | Sereno | 31 | 17 | 43 | 1016 | 10 | O 7.4 | |
| Ieri h: 13:53 | Sereno | 31 | 18 | 45 | 1016 | 10 | N 0 | |
| Ieri h: 12:53 | Sereno | 29 | 19 | 54 | 1017 | 10 | O 7.4 | |
| Ieri h: 11:53 | Sereno | 27 | 17 | 54 | 1017 | 10 | N 7.4 | |
| Ieri h: 10:53 | Sereno | 24 | 16 | 60 | 1017 | 10 | N 0 | |
| Ieri h: 09:53 | Sereno | 21 | 15 | 68 | 1017 | 10 | N 0 | |
| Ieri h: 08:53 | Sereno | 18 | 14 | 77 | 1017 | 10 | N 0 | |
| Ieri h: 07:53 | Sereno | 15 | 14 | 93 | 1017 | 10 | N 0 | |
| Ieri h: 06:53 | Sereno | 14 | 13 | 93 | 1016 | 10 | N 0 | |
| Ieri h: 05:53 | Nuvoloso | 15 | 14 | 93 | 1016 | 10 | N/NO 7.4 | |
| Ieri h: 04:53 | Molto Nuvoloso | 17 | 13 | 77 | 1016 | 10 | N 0 | |
| Ieri h: 03:53 | Poco Nuvoloso | 17 | 13 | 77 | 1015 | 10 | N 5.5 | |



